Rechercher aéroport 
image banner adimage banner adimage banner ad
image banner ad

CN42 - Double Creek Ranch

Situé à Manton, United States

ICAO - CN42, IATA -

Données fournies par Airmate  

Information générale

Coordonnées: N40°26'45" W121°52'56"
Élévation : 2030 feet MSL.
Variation magnétique : 17° East
Voir autres Aéroports à California

Données opérationnelles

Special qualification required
Heure actuelle UTC:
Heure actuelle locale:
Météo à : KRDD - Redding Muni ( 35 km )
METAR: KRDD 300053Z 16009G15KT 10SM FU CLR 42/09 A2975 RMK AO2 SLP067 T04170094
TAF: KRDD 292350Z 3000/3024 18008KT P6SM SCT200 FM300500 VRB04KT P6SM SCT200 FM302300 18008KT P6SM SCT150
Voir NOTAMs / SUP AIP / TFR affectant cet aéroport [VIEW]
Fréquences de communication: [VIEW]

Pistes:

Identifiant RWYQFULongueur (ft)Largeur (ft)SurfaceLDA (ft)
06340080OTHER
24340080OTHER

Coordonnées de l'aéroport

Adresse: Manton United States

Vue satellite de CN42